createdAt,value
2018-06-12T04:01:03.524Z,12.80
2018-06-12T04:03:30.535Z,15.37
2018-06-12T04:05:57.537Z,15.17
2018-06-12T04:08:24.553Z,18.60
2018-06-12T04:10:51.958Z,15.63
2018-06-12T04:13:18.974Z,13.50
2018-06-12T04:15:45.973Z,16.40
2018-06-12T04:18:12.993Z,17.93
2018-06-12T04:20:40.205Z,15.00
2018-06-12T04:23:07.213Z,14.73
2018-06-12T04:25:34.244Z,13.17
2018-06-12T04:28:01.290Z,16.23
2018-06-12T04:30:28.305Z,18.03
2018-06-12T04:32:55.297Z,13.43
2018-06-12T04:35:22.327Z,14.10
2018-06-12T04:37:49.329Z,14.17
2018-06-12T04:40:16.349Z,13.30
2018-06-12T04:42:43.472Z,12.73
2018-06-12T04:45:10.491Z,17.90
2018-06-12T04:47:37.501Z,13.97
2018-06-12T04:50:04.545Z,13.00
2018-06-12T04:52:31.565Z,14.47
2018-06-12T04:54:58.597Z,11.87
2018-06-12T04:57:25.606Z,13.10
2018-06-12T04:59:52.649Z,14.27
2018-06-12T05:02:19.698Z,12.83
2018-06-12T05:04:46.752Z,12.50
2018-06-12T05:07:13.753Z,11.13
2018-06-12T05:09:40.786Z,11.70
2018-06-12T05:12:07.792Z,14.00
2018-06-12T05:14:34.848Z,10.73
2018-06-12T05:17:01.878Z,10.80
2018-06-12T05:19:28.885Z,11.07
2018-06-12T05:21:55.919Z,11.30
2018-06-12T05:24:22.944Z,11.33
2018-06-12T05:26:52.303Z,11.80
2018-06-12T05:29:19.354Z,13.13
2018-06-12T05:31:46.384Z,11.23
2018-06-12T05:34:13.424Z,10.77
2018-06-12T05:36:40.444Z,10.30
2018-06-12T05:39:09.754Z,10.40
2018-06-12T05:41:37.497Z,10.90
2018-06-12T05:44:04.505Z,10.43
2018-06-12T05:46:31.525Z,10.80
2018-06-12T05:48:58.528Z,11.73
2018-06-12T05:51:37.294Z,8.90
2018-06-12T05:54:04.794Z,10.13
2018-06-12T05:56:31.821Z,10.23
2018-06-12T05:58:58.997Z,9.33
2018-06-12T06:01:26.089Z,10.83
2018-06-12T06:03:53.373Z,10.73
2018-06-12T06:06:20.634Z,11.20
2018-06-12T06:08:47.639Z,10.10
2018-06-12T06:11:15.670Z,10.43
2018-06-12T06:13:43.738Z,10.40
2018-06-12T06:16:14.540Z,9.57
2018-06-12T06:18:42.333Z,11.70
2018-06-12T06:21:10.656Z,10.20
2018-06-12T06:23:38.041Z,8.90
2018-06-12T06:26:07.957Z,12.00
2018-06-12T06:28:38.370Z,10.90
2018-06-12T06:31:09.356Z,10.53
2018-06-12T06:33:40.782Z,11.23
2018-06-12T06:36:07.842Z,10.03
2018-06-12T06:38:35.045Z,11.53
2018-06-12T06:41:02.049Z,12.03
2018-06-12T06:43:29.044Z,12.47
2018-06-12T06:45:56.072Z,10.60
2018-06-12T06:48:23.064Z,9.47
2018-06-12T06:50:50.095Z,9.87
2018-06-12T06:53:17.096Z,10.37
2018-06-12T06:55:44.129Z,9.33
2018-06-12T06:58:11.137Z,10.57
2018-06-12T07:00:38.168Z,9.53
2018-06-12T07:03:05.167Z,10.30
2018-06-12T07:05:32.177Z,9.73
2018-06-12T07:07:59.178Z,9.40
2018-06-12T07:10:26.185Z,10.33
2018-06-12T07:12:53.173Z,10.30
2018-06-12T07:15:20.240Z,12.07
2018-06-12T07:17:47.246Z,10.90
2018-06-12T07:20:25.928Z,10.50
2018-06-12T07:22:52.936Z,8.93
2018-06-12T07:25:19.977Z,10.00
2018-06-12T07:27:47.017Z,9.67
2018-06-12T07:30:14.034Z,10.43
2018-06-12T07:32:41.046Z,9.83
2018-06-12T07:35:08.070Z,9.60
2018-06-12T07:37:35.109Z,9.90
2018-06-12T07:40:02.107Z,10.17
2018-06-12T07:42:29.145Z,10.37
2018-06-12T07:44:56.137Z,9.63
2018-06-12T07:47:23.159Z,9.70
2018-06-12T07:49:50.170Z,11.03
2018-06-12T07:52:17.180Z,9.87
2018-06-12T07:54:44.204Z,10.10
2018-06-12T07:57:11.247Z,8.73
2018-06-12T07:59:38.270Z,9.70
2018-06-12T08:02:05.305Z,9.57
2018-06-12T08:04:32.334Z,9.30
2018-06-12T08:06:59.376Z,10.30
2018-06-12T08:09:26.364Z,8.60
2018-06-12T08:11:53.358Z,9.47
2018-06-12T08:14:20.445Z,9.80
2018-06-12T08:16:47.469Z,10.27
2018-06-12T08:19:14.469Z,12.07
2018-06-12T08:21:41.467Z,11.10
2018-06-12T08:24:08.487Z,9.93
2018-06-12T08:26:35.489Z,10.80
2018-06-12T08:29:02.509Z,10.40
2018-06-12T08:31:29.514Z,9.13
2018-06-12T08:33:56.521Z,10.33
2018-06-12T08:36:23.535Z,9.83
2018-06-12T08:38:50.552Z,9.93
2018-06-12T08:41:17.589Z,9.93
2018-06-12T08:43:44.596Z,9.70
2018-06-12T08:46:11.633Z,9.03
2018-06-12T08:48:38.646Z,9.63
2018-06-12T08:51:05.773Z,9.77
2018-06-12T08:53:32.789Z,9.07
2018-06-12T08:55:59.809Z,9.07
2018-06-12T08:58:26.825Z,9.77
2018-06-12T09:00:53.865Z,8.93
2018-06-12T09:03:20.856Z,10.43
2018-06-12T09:05:47.882Z,8.93
2018-06-12T09:08:14.894Z,10.40
2018-06-12T09:10:41.916Z,8.67
2018-06-12T09:13:08.936Z,10.97
2018-06-12T09:15:35.944Z,11.83
2018-06-12T09:18:02.957Z,12.43
2018-06-12T09:20:29.969Z,12.03
2018-06-12T09:22:56.971Z,12.30
2018-06-12T09:25:24.008Z,12.30
2018-06-12T09:27:51.013Z,14.47
2018-06-12T09:30:18.752Z,12.93
2018-06-12T09:32:46.200Z,10.20
2018-06-12T09:35:13.205Z,9.67
2018-06-12T09:37:40.221Z,9.70
2018-06-12T09:40:07.229Z,9.77
2018-06-12T09:42:34.249Z,12.97
2018-06-12T09:45:01.324Z,9.87
2018-06-12T09:47:28.352Z,11.57
2018-06-12T09:49:55.340Z,10.40
2018-06-12T09:52:24.152Z,9.80
2018-06-12T09:54:51.526Z,10.50
2018-06-12T09:57:18.550Z,9.93
2018-06-12T09:59:45.559Z,13.87
2018-06-12T10:02:12.593Z,9.47
2018-06-12T10:04:39.654Z,9.70
2018-06-12T10:07:06.674Z,9.67
2018-06-12T10:09:33.685Z,11.67
2018-06-12T10:12:00.673Z,11.20
2018-06-12T10:14:27.690Z,10.33
2018-06-12T10:16:54.702Z,9.83
2018-06-12T10:19:21.735Z,9.17
2018-06-12T10:21:48.749Z,9.77
2018-06-12T10:24:15.744Z,9.43
2018-06-12T10:26:42.748Z,9.17
2018-06-12T10:29:09.744Z,9.77
2018-06-12T10:31:36.777Z,9.70
2018-06-12T10:34:03.789Z,10.73
2018-06-12T10:36:31.093Z,10.20
2018-06-12T10:38:58.126Z,10.03
2018-06-12T10:41:25.164Z,10.83
2018-06-12T10:43:52.214Z,10.57
2018-06-12T10:46:19.210Z,9.87
2018-06-12T10:48:46.218Z,11.30
2018-06-12T10:51:13.212Z,8.50
2018-06-12T10:53:40.249Z,10.23
2018-06-12T10:56:07.263Z,9.23
2018-06-12T10:58:34.276Z,9.90
2018-06-12T11:01:01.295Z,10.10
2018-06-12T11:03:28.311Z,10.80
2018-06-12T11:05:55.383Z,10.00
2018-06-12T11:08:22.469Z,8.20
2018-06-12T11:10:49.515Z,8.93
2018-06-12T11:13:16.511Z,10.00
2018-06-12T11:15:43.530Z,9.60
2018-06-12T11:18:10.536Z,10.70
2018-06-12T11:20:37.568Z,10.17
2018-06-12T11:23:04.705Z,9.17
2018-06-12T11:25:31.728Z,9.63
2018-06-12T11:27:58.725Z,9.33
2018-06-12T11:30:25.773Z,10.03
2018-06-12T11:32:52.792Z,8.60
2018-06-12T11:35:19.797Z,9.00
2018-06-12T11:37:46.817Z,9.80
2018-06-12T11:40:13.833Z,10.10
2018-06-12T11:42:40.856Z,9.10
2018-06-12T11:45:07.849Z,10.47
2018-06-12T11:47:35.101Z,10.40
2018-06-12T11:50:02.087Z,10.00
2018-06-12T11:52:29.087Z,10.37
2018-06-12T11:54:56.066Z,9.77
2018-06-12T11:57:23.168Z,9.37
2018-06-12T11:59:50.149Z,10.13
2018-06-12T12:02:17.157Z,10.57
2018-06-12T12:04:44.132Z,11.20
2018-06-12T12:07:11.098Z,11.00
2018-06-12T12:09:38.072Z,10.60
2018-06-12T12:12:05.062Z,9.57
2018-06-12T12:14:32.033Z,11.00
2018-06-12T12:16:59.033Z,10.27
2018-06-12T12:19:26.004Z,12.20
2018-06-12T12:21:52.969Z,10.50
2018-06-12T12:24:19.933Z,10.70
2018-06-12T12:26:46.892Z,11.40
2018-06-12T12:29:13.860Z,12.10
2018-06-12T12:31:40.814Z,12.70
2018-06-12T12:34:07.793Z,11.00
2018-06-12T12:36:35.056Z,10.90
2018-06-12T12:39:02.117Z,11.30
2018-06-12T12:41:29.099Z,9.93
2018-06-12T12:43:56.088Z,10.00
2018-06-12T12:46:23.053Z,11.67
2018-06-12T12:48:50.030Z,10.47
2018-06-12T12:51:17.000Z,10.97
2018-06-12T12:53:43.981Z,10.20
2018-06-12T12:56:10.990Z,10.50
2018-06-12T12:58:37.977Z,9.77
2018-06-12T13:01:04.973Z,10.67
2018-06-12T13:03:31.949Z,10.43
2018-06-12T13:05:58.957Z,12.17
2018-06-12T13:08:25.945Z,11.33
2018-06-12T13:10:52.969Z,10.93
2018-06-12T13:13:19.954Z,11.23
2018-06-12T13:15:46.941Z,11.07
2018-06-12T13:18:13.928Z,11.57
2018-06-12T13:20:41.328Z,10.87
2018-06-12T13:23:08.397Z,11.60
2018-06-12T13:25:35.403Z,11.13
2018-06-12T13:28:02.773Z,11.50
2018-06-12T13:30:29.762Z,11.60
2018-06-12T13:32:56.788Z,11.70
2018-06-12T13:35:23.785Z,11.57
2018-06-12T13:37:51.245Z,11.83
2018-06-12T13:40:18.234Z,12.13
2018-06-12T13:42:45.452Z,12.80
2018-06-12T13:45:12.485Z,12.17
2018-06-12T13:47:39.580Z,11.80
2018-06-12T13:50:06.581Z,11.43
2018-06-12T13:52:33.609Z,11.73
2018-06-12T13:55:00.611Z,10.93
2018-06-12T13:57:28.197Z,11.13
2018-06-12T13:59:56.340Z,12.23
2018-06-12T14:02:23.325Z,10.73
2018-06-12T14:04:50.447Z,12.07
2018-06-12T14:07:17.492Z,11.47
2018-06-12T14:09:44.520Z,10.67
2018-06-12T14:12:11.582Z,11.00
2018-06-12T14:14:38.585Z,10.53
2018-06-12T14:17:11.762Z,10.50
2018-06-12T14:19:38.777Z,10.67
2018-06-12T14:22:05.813Z,11.87
2018-06-12T14:24:32.827Z,12.77
2018-06-12T14:26:59.823Z,11.37
2018-06-12T14:29:26.824Z,11.60
2018-06-12T14:31:53.829Z,11.47
2018-06-12T14:34:20.834Z,12.67
2018-06-12T14:36:47.833Z,11.67
2018-06-12T14:39:14.834Z,12.53
2018-06-12T14:41:41.895Z,12.73
2018-06-12T14:44:08.890Z,12.23
2018-06-12T14:46:35.891Z,12.70
2018-06-12T14:49:03.014Z,12.43
2018-06-12T14:51:30.685Z,13.13
2018-06-12T14:53:57.676Z,12.50
2018-06-12T14:56:24.681Z,12.77
2018-06-12T14:58:51.668Z,12.60
2018-06-12T15:01:18.686Z,13.27
2018-06-12T15:03:45.698Z,12.60
2018-06-12T15:06:12.755Z,14.30
2018-06-12T15:08:39.757Z,13.30
2018-06-12T15:11:06.769Z,14.17
2018-06-12T15:13:33.752Z,13.00
2018-06-12T15:16:00.818Z,14.33
2018-06-12T15:18:27.825Z,13.23
2018-06-12T15:20:54.817Z,14.03
2018-06-12T15:23:21.848Z,14.53
2018-06-12T15:25:48.836Z,14.60
2018-06-12T15:28:15.877Z,15.03
2018-06-12T15:30:42.905Z,14.70
2018-06-12T15:33:09.912Z,16.93
2018-06-12T15:35:37.010Z,14.90
2018-06-12T15:38:04.125Z,15.83
2018-06-12T15:40:31.127Z,17.90
2018-06-12T15:42:58.125Z,27.97
2018-06-12T15:45:25.106Z,18.00
2018-06-12T15:47:52.117Z,17.30
2018-06-12T15:50:19.122Z,18.07
2018-06-12T15:52:52.853Z,19.53
2018-06-12T15:55:20.966Z,19.33
2018-06-12T15:57:47.985Z,18.90
2018-06-12T16:00:15.214Z,21.03
2018-06-12T16:02:42.317Z,19.97
2018-06-12T16:05:09.342Z,19.57
2018-06-12T16:07:36.351Z,21.13
2018-06-12T16:10:03.411Z,20.63
2018-06-12T16:12:30.430Z,21.60
2018-06-12T16:14:57.476Z,22.07
2018-06-12T16:17:24.577Z,22.73
2018-06-12T16:19:51.673Z,22.43
2018-06-12T16:22:18.680Z,22.10
2018-06-12T16:24:45.688Z,21.20
2018-06-12T16:27:12.695Z,20.80
2018-06-12T16:29:39.729Z,20.30
2018-06-12T16:32:06.717Z,21.60
2018-06-12T16:34:33.756Z,20.83
2018-06-12T16:37:00.769Z,22.90
2018-06-12T16:39:27.783Z,22.30
2018-06-12T16:41:54.796Z,24.73
2018-06-12T16:44:21.821Z,24.03
2018-06-12T16:46:48.834Z,24.63
2018-06-12T16:49:15.846Z,23.60
2018-06-12T16:51:42.861Z,26.10
2018-06-12T16:54:09.885Z,25.97
2018-06-12T16:56:36.903Z,23.10
2018-06-12T16:59:04.108Z,24.20
2018-06-12T17:01:31.121Z,24.83
2018-06-12T17:03:58.120Z,26.87
2018-06-12T17:06:25.141Z,27.63
2018-06-12T17:08:52.162Z,25.73
2018-06-12T17:11:19.221Z,25.20
2018-06-12T17:13:46.279Z,25.33
2018-06-12T17:16:13.272Z,27.63
2018-06-12T17:18:40.382Z,27.10
2018-06-12T17:21:07.377Z,27.10
2018-06-12T17:23:34.401Z,26.40
2018-06-12T17:26:01.393Z,28.50
2018-06-12T17:28:28.400Z,29.40
2018-06-12T17:30:55.433Z,29.10
2018-06-12T17:33:22.429Z,28.03
2018-06-12T17:35:49.457Z,27.80
2018-06-12T17:40:50.245Z,27.73
2018-06-12T17:43:17.304Z,26.87
2018-06-12T17:45:44.356Z,28.87
2018-06-12T17:48:11.361Z,30.43
2018-06-12T17:50:38.368Z,28.47
2018-06-12T17:53:06.365Z,27.07
2018-06-12T17:55:33.390Z,27.37
2018-06-12T17:58:00.417Z,26.00
2018-06-12T18:00:27.436Z,25.67
2018-06-12T18:02:54.440Z,26.17
2018-06-12T18:05:21.437Z,24.20
2018-06-12T18:07:48.500Z,25.53
2018-06-12T18:10:15.570Z,25.83
2018-06-12T18:12:42.607Z,24.33
2018-06-12T18:15:09.804Z,25.73
2018-06-12T18:17:36.845Z,23.87
2018-06-12T18:20:03.855Z,22.60
2018-06-12T18:22:31.237Z,24.07
2018-06-12T18:24:58.569Z,24.77
2018-06-12T18:27:25.521Z,24.50
2018-06-12T18:29:52.535Z,22.73
2018-06-12T18:32:19.572Z,20.70
2018-06-12T18:34:46.566Z,22.33
2018-06-12T18:37:21.781Z,22.33
2018-06-12T18:39:53.375Z,22.60
2018-06-12T18:42:21.464Z,20.83
2018-06-12T18:44:48.581Z,21.90
2018-06-12T18:47:15.994Z,19.67
2018-06-12T18:49:43.483Z,20.93
2018-06-12T18:52:10.549Z,20.17
2018-06-12T18:54:37.561Z,18.80
2018-06-12T18:57:05.133Z,17.97
2018-06-12T18:59:32.158Z,17.00
2018-06-12T19:01:59.186Z,18.30
2018-06-12T19:04:26.265Z,18.40
2018-06-12T19:06:53.276Z,19.10
2018-06-12T19:09:20.327Z,18.40
2018-06-12T19:11:47.295Z,17.70
2018-06-12T19:14:14.315Z,17.03
2018-06-12T19:16:41.442Z,17.30
2018-06-12T19:19:08.496Z,16.87
2018-06-12T19:21:43.497Z,16.57
2018-06-12T19:24:10.738Z,16.50
2018-06-12T19:26:37.802Z,16.77
2018-06-12T19:29:05.051Z,14.97
2018-06-12T19:31:36.591Z,15.83
2018-06-12T19:34:24.529Z,14.07
2018-06-12T19:36:59.268Z,13.83
2018-06-12T19:39:31.642Z,13.87
2018-06-12T19:42:02.559Z,13.57
2018-06-12T19:44:35.621Z,13.23
2018-06-12T19:47:02.678Z,12.30
2018-06-12T19:49:29.681Z,12.30
2018-06-12T19:51:56.721Z,12.60
2018-06-12T19:54:23.730Z,11.77
2018-06-12T19:56:50.710Z,11.60
2018-06-12T19:59:17.709Z,11.03
2018-06-12T20:01:44.673Z,11.20
2018-06-12T20:04:11.657Z,11.13
2018-06-12T20:06:38.652Z,10.33
2018-06-12T20:09:06.688Z,10.03
2018-06-12T20:11:33.665Z,9.43
2018-06-12T20:14:02.708Z,9.47
2018-06-12T20:16:29.690Z,8.70
2018-06-12T20:18:57.074Z,8.40
2018-06-12T20:21:24.073Z,11.00
2018-06-12T20:23:51.085Z,7.00
2018-06-12T20:26:18.200Z,7.63
2018-06-12T20:28:45.619Z,7.80
2018-06-12T20:31:12.936Z,8.40
2018-06-12T20:33:40.069Z,7.53
2018-06-12T20:36:07.258Z,10.70
2018-06-12T20:38:34.353Z,7.43
2018-06-12T20:41:01.501Z,7.70
2018-06-12T20:43:29.344Z,7.43
2018-06-12T20:45:56.606Z,8.13
2018-06-12T20:48:23.594Z,10.63
2018-06-12T20:50:51.169Z,8.17
2018-06-12T20:53:18.298Z,8.27
2018-06-12T20:55:45.457Z,6.47
2018-06-12T20:58:12.494Z,7.57
2018-06-12T21:00:39.935Z,7.57
2018-06-12T21:03:06.958Z,7.13
2018-06-12T21:05:34.205Z,6.67
2018-06-12T21:08:01.983Z,7.03
2018-06-12T21:10:29.160Z,6.80
2018-06-12T21:12:56.179Z,8.60
2018-06-12T21:15:23.177Z,10.90
2018-06-12T21:17:50.192Z,7.23
2018-06-12T21:20:17.205Z,7.87
2018-06-12T21:22:44.212Z,7.20
2018-06-12T21:25:11.208Z,7.60
2018-06-12T21:27:38.412Z,7.20
2018-06-12T21:30:05.632Z,6.97
2018-06-12T21:32:33.305Z,6.93
2018-06-12T21:35:01.532Z,10.77
2018-06-12T21:37:28.896Z,8.30
2018-06-12T21:39:56.145Z,7.57
2018-06-12T21:42:23.252Z,8.93
2018-06-12T21:44:50.686Z,8.37
2018-06-12T21:47:17.832Z,8.03
2018-06-12T21:49:45.142Z,9.27
2018-06-12T21:52:12.543Z,9.07
2018-06-12T21:54:41.420Z,7.63
2018-06-12T21:57:08.673Z,10.03
2018-06-12T21:59:35.921Z,9.20
2018-06-12T22:02:02.958Z,10.67
2018-06-12T22:04:30.047Z,8.10
2018-06-12T22:06:57.167Z,8.20
2018-06-12T22:09:24.654Z,8.50
2018-06-12T22:11:51.789Z,8.87
2018-06-12T22:14:18.959Z,7.90
2018-06-12T22:16:46.637Z,7.30
2018-06-12T22:19:13.625Z,8.90
2018-06-12T22:21:40.614Z,8.80
2018-06-12T22:24:07.912Z,8.93
2018-06-12T22:26:35.137Z,10.00
2018-06-12T22:29:02.676Z,8.40
2018-06-12T22:31:30.028Z,8.87
2018-06-12T22:33:57.369Z,11.13
2018-06-12T22:36:24.822Z,7.93
2018-06-12T22:38:52.001Z,11.70
2018-06-12T22:41:19.025Z,9.23
2018-06-12T22:43:46.949Z,9.00
2018-06-12T22:46:14.076Z,10.53
2018-06-12T22:48:41.077Z,11.33
2018-06-12T22:51:08.900Z,11.00
2018-06-12T22:53:35.919Z,11.63
2018-06-12T22:56:03.887Z,10.70
2018-06-12T22:58:32.383Z,10.20
2018-06-12T23:01:03.809Z,11.33
2018-06-12T23:03:40.565Z,13.03
2018-06-12T23:06:10.299Z,10.27
2018-06-12T23:08:42.918Z,11.10
2018-06-12T23:11:10.551Z,13.23
2018-06-12T23:13:37.541Z,11.83
2018-06-12T23:16:04.529Z,9.50
2018-06-12T23:18:31.513Z,10.77
2018-06-12T23:22:07.974Z,10.20
2018-06-12T23:24:38.359Z,12.53
2018-06-12T23:27:05.505Z,10.87
2018-06-12T23:29:34.367Z,11.23
2018-06-12T23:32:01.379Z,8.93
2018-06-12T23:34:28.455Z,9.20
2018-06-12T23:36:55.540Z,10.27
2018-06-12T23:39:22.578Z,12.90
2018-06-12T23:41:49.576Z,11.10
2018-06-12T23:44:16.564Z,13.90
2018-06-12T23:46:43.573Z,9.93
2018-06-12T23:49:10.619Z,9.83
2018-06-12T23:51:37.565Z,10.03
2018-06-12T23:54:04.557Z,9.27
2018-06-12T23:56:31.557Z,10.13
2018-06-12T23:58:58.606Z,12.77
